Time;durP1;ratioP1;P1;durP2;ratioP2;P2;SDS_P1;SDS_P2;PMS_P1;PMS_P2;Temp;Humidity;BMP_temperature;BMP_pressure;BME280_temperature;BME280_humidity;BME280_pressure;Samples;Min_cycle;Max_cycle;Signal;HPM_P1;HPM_P2
2021/01/16 09:14:20;;;;;;;29.77;18.13;;;1.00;99.90;;;;;;12854861;23;20020;-92
2021/01/16 09:19:29;;;;;;;28.23;18.08;;;1.00;99.90;;;;;;12767949;23;20040;-92
2021/01/16 09:24:30;;;;;;;25.23;17.20;;;1.10;99.90;;;;;;12812623;23;20473;-92
2021/01/16 09:29:33;;;;;;;24.98;15.68;;;1.10;99.90;;;;;;12839738;23;20047;-91
2021/01/16 09:34:36;;;;;;;23.48;17.40;;;1.10;99.90;;;;;;12818003;23;20031;-92
2021/01/16 09:39:37;;;;;;;24.60;17.25;;;1.20;99.90;;;;;;12817044;23;20327;-92
2021/01/16 09:44:39;;;;;;;25.38;16.45;;;1.20;99.90;;;;;;12766308;23;20048;-92
2021/01/16 09:49:45;;;;;;;29.95;17.58;;;1.20;99.90;;;;;;12841204;23;20020;-91
2021/01/16 09:54:50;;;;;;;27.40;17.15;;;1.30;99.90;;;;;;12791889;23;20112;-91
2021/01/16 10:00:13;;;;;;;22.88;15.55;;;1.40;99.90;;;;;;12815707;23;20021;-92
2021/01/16 10:05:28;;;;;;;24.15;15.88;;;1.40;99.90;;;;;;12816651;23;20024;-92
2021/01/16 10:10:46;;;;;;;26.67;16.48;;;1.50;99.90;;;;;;12817000;23;20020;-92
2021/01/16 10:15:52;;;;;;;24.73;16.75;;;1.50;99.90;;;;;;12815924;23;20017;-92
2021/01/16 10:21:11;;;;;;;25.65;16.50;;;1.50;99.90;;;;;;12816326;23;20075;-93
2021/01/16 10:26:16;;;;;;;27.77;18.15;;;1.60;99.90;;;;;;12815888;23;20032;-92
2021/01/16 10:31:26;;;;;;;27.35;17.83;;;1.60;99.90;;;;;;12792573;23;20021;-91
2021/01/16 10:36:29;;;;;;;26.38;16.15;;;1.70;99.90;;;;;;12815088;23;20072;-91
2021/01/16 10:41:40;;;;;;;29.15;17.60;;;1.70;99.90;;;;;;12767902;23;20044;-91
2021/01/16 10:46:53;;;;;;;27.10;17.20;;;1.80;99.90;;;;;;12814631;23;20020;-91
2021/01/16 10:52:03;;;;;;;26.00;16.38;;;1.80;99.90;;;;;;12816833;23;20024;-91
2021/01/16 10:57:06;;;;;;;27.50;16.65;;;1.80;99.90;;;;;;12815343;23;20021;-92
2021/01/16 11:02:13;;;;;;;22.58;15.63;;;1.80;99.90;;;;;;12790730;23;20321;-91
2021/01/16 11:07:29;;;;;;;24.80;16.70;;;1.80;99.90;;;;;;12815724;23;20025;-91
2021/01/16 11:12:35;;;;;;;26.33;16.45;;;1.80;99.90;;;;;;12766131;23;20072;-91
2021/01/16 11:17:57;;;;;;;25.30;15.55;;;1.80;99.90;;;;;;12814291;23;20044;-91
2021/01/16 11:23:26;;;;;;;26.50;15.43;;;1.80;99.90;;;;;;12814949;23;20043;-92
2021/01/16 11:28:28;;;;;;;23.10;15.18;;;1.90;99.90;;;;;;12839213;23;20461;-92
2021/01/16 11:33:30;;;;;;;23.67;14.85;;;1.90;99.90;;;;;;12790884;23;20020;-92
2021/01/16 11:38:42;;;;;;;22.42;14.55;;;2.00;99.90;;;;;;12815528;23;20076;-92
2021/01/16 11:43:43;;;;;;;24.10;15.27;;;2.00;99.90;;;;;;12815170;23;20079;-92
2021/01/16 11:48:45;;;;;;;22.25;14.20;;;2.00;99.90;;;;;;12766212;23;20032;-92
2021/01/16 11:53:51;;;;;;;19.80;12.63;;;2.00;99.90;;;;;;12814127;23;20028;-92
2021/01/16 11:58:53;;;;;;;17.88;12.20;;;2.00;99.90;;;;;;12813828;23;20091;-93
2021/01/16 12:04:03;;;;;;;18.13;12.75;;;2.00;99.90;;;;;;12813774;23;20027;-92
2021/01/16 12:09:06;;;;;;;16.75;11.02;;;2.00;99.90;;;;;;12813669;23;20032;-93
2021/01/16 12:14:08;;;;;;;19.80;11.93;;;2.00;99.90;;;;;;12814366;23;20099;-92
2021/01/16 12:19:14;;;;;;;20.00;13.13;;;2.00;99.90;;;;;;12764973;23;20023;-91
2021/01/16 12:24:23;;;;;;;15.48;10.68;;;2.10;99.90;;;;;;12789507;23;20024;-92
2021/01/16 12:29:47;;;;;;;17.02;12.00;;;2.10;99.90;;;;;;12839245;23;20091;-92
2021/01/16 12:34:52;;;;;;;14.13;9.88;;;2.10;99.90;;;;;;12814928;23;20079;-91
2021/01/16 12:39:54;;;;;;;15.80;10.10;;;2.00;99.90;;;;;;12813042;23;20027;-91
2021/01/16 12:45:20;;;;;;;14.20;9.27;;;2.10;99.90;;;;;;12813353;23;20594;-91
2021/01/16 12:50:24;;;;;;;12.27;8.88;;;2.00;99.90;;;;;;12814013;23;20016;-92
2021/01/16 12:55:27;;;;;;;16.45;8.75;;;2.00;99.90;;;;;;12813802;23;20027;-92
2021/01/16 13:00:31;;;;;;;13.35;9.45;;;2.00;99.90;;;;;;12789679;23;20016;-91
2021/01/16 13:05:36;;;;;;;14.45;9.20;;;1.90;99.90;;;;;;12812525;23;20358;-91
2021/01/16 13:10:46;;;;;;;14.75;8.85;;;1.80;99.90;;;;;;12812479;23;20071;-92
2021/01/16 13:15:48;;;;;;;11.98;9.10;;;1.80;99.90;;;;;;12812787;23;20087;-92
2021/01/16 13:20:58;;;;;;;13.73;9.55;;;1.70;99.90;;;;;;12789782;23;20099;-92
2021/01/16 13:26:00;;;;;;;13.73;9.48;;;1.70;99.90;;;;;;12814370;23;20020;-91
2021/01/16 13:31:02;;;;;;;13.18;9.43;;;1.70;99.90;;;;;;12813441;23;20048;-93
2021/01/16 13:36:15;;;;;;;19.52;11.32;;;1.70;99.90;;;;;;12766553;23;20095;-93
2021/01/16 13:41:20;;;;;;;11.43;8.07;;;1.60;99.90;;;;;;12812627;23;20045;-92
2021/01/16 13:46:21;;;;;;;11.77;8.00;;;1.70;99.90;;;;;;12812767;23;20032;-93
2021/01/16 13:51:32;;;;;;;10.52;7.38;;;1.70;99.90;;;;;;12777245;23;20040;-95
2021/01/16 13:56:46;;;;;;;10.20;7.10;;;1.70;99.90;;;;;;12814366;23;20099;-94
2021/01/16 14:02:01;;;;;;;10.50;7.53;;;1.70;99.90;;;;;;12814546;23;20021;-93
2021/01/16 14:07:04;;;;;;;11.98;7.25;;;1.60;99.90;;;;;;12789700;23;20024;-93
2021/01/16 14:12:15;;;;;;;10.93;7.80;;;1.60;99.90;;;;;;12788261;23;20025;-92
2021/01/16 14:17:24;;;;;;;9.65;7.57;;;1.60;99.90;;;;;;12814856;23;20108;-92
2021/01/16 14:22:44;;;;;;;10.02;7.82;;;1.50;99.90;;;;;;12828290;23;20566;-92
2021/01/16 14:27:47;;;;;;;10.38;8.18;;;1.50;99.90;;;;;;12816813;23;20021;-93
2021/01/16 14:33:03;;;;;;;11.48;7.53;;;1.50;99.90;;;;;;12816467;23;20020;-92
2021/01/16 14:38:10;;;;;;;22.75;8.85;;;1.50;99.90;;;;;;12840148;23;20024;-92
2021/01/16 14:43:17;;;;;;;10.75;8.10;;;1.40;99.90;;;;;;12815421;23;20016;-92
2021/01/16 14:48:21;;;;;;;14.50;8.48;;;1.40;99.90;;;;;;12816274;23;20024;-93
2021/01/16 14:53:33;;;;;;;16.27;9.98;;;1.30;99.90;;;;;;12815742;23;20031;-93
2021/01/16 14:58:53;;;;;;;13.02;9.52;;;1.30;99.90;;;;;;12815783;23;20024;-92
2021/01/16 15:03:55;;;;;;;13.20;8.80;;;1.30;99.90;;;;;;12840574;23;20020;-93
2021/01/16 15:09:00;;;;;;;14.90;9.65;;;1.30;99.90;;;;;;12791407;23;20056;-93
2021/01/16 15:14:03;;;;;;;13.20;9.55;;;1.20;99.90;;;;;;12815248;23;20056;-93
2021/01/16 15:19:06;;;;;;;13.93;10.40;;;1.20;99.90;;;;;;12789383;23;20537;-94
2021/01/16 15:24:08;;;;;;;14.65;10.02;;;1.20;99.90;;;;;;12814330;23;20020;-92
2021/01/16 15:29:11;;;;;;;16.25;10.75;;;1.20;99.90;;;;;;12766459;23;20079;-93
2021/01/16 15:34:18;;;;;;;15.57;10.63;;;1.10;99.90;;;;;;12813356;23;20025;-93
2021/01/16 15:39:22;;;;;;;18.90;9.90;;;1.10;99.90;;;;;;12813731;23;20071;-94
2021/01/16 15:44:29;;;;;;;18.25;11.85;;;1.10;99.90;;;;;;12764913;23;20020;-93
2021/01/16 15:49:33;;;;;;;15.55;10.70;;;1.10;99.90;;;;;;12815118;23;20055;-93
2021/01/16 15:54:34;;;;;;;;;;;1.00;99.90;;;;;;12767192;23;20071;-93
2021/01/16 15:59:36;;;;;;;19.95;13.48;;;0.90;99.90;;;;;;12790803;23;19915;-92
2021/01/16 16:04:37;;;;;;;21.40;13.30;;;0.70;99.90;;;;;;12799524;23;20044;-93
2021/01/16 16:09:39;;;;;;;19.98;13.02;;;0.60;99.90;;;;;;12814521;23;20032;-94
2021/01/16 16:14:40;;;;;;;20.10;13.07;;;0.50;99.90;;;;;;12861129;23;20052;-93
2021/01/16 16:19:42;;;;;;;25.05;14.82;;;0.40;99.90;;;;;;12812602;23;20461;-94
2021/01/16 16:24:44;;;;;;;23.60;15.35;;;0.30;99.90;;;;;;12838048;23;20450;-94
2021/01/16 16:29:46;;;;;;;23.38;14.88;;;0.10;99.90;;;;;;12862530;23;20055;-94
2021/01/16 16:34:47;;;;;;;;;;;0.00;99.90;;;;;;12862066;23;20032;-94
2021/01/16 16:39:49;;;;;;;27.60;16.45;;;0.00;99.90;;;;;;12858609;23;19994;-94
2021/01/16 16:44:50;;;;;;;28.92;16.77;;;-0.10;99.90;;;;;;12835521;23;20021;-93
2021/01/16 16:49:51;;;;;;;28.92;16.48;;;-0.20;99.90;;;;;;12811052;23;20107;-93
2021/01/16 16:54:53;;;;;;;26.52;16.13;;;-0.30;99.90;;;;;;12835832;23;20028;-94
2021/01/16 16:59:58;;;;;;;29.77;17.55;;;-0.30;99.90;;;;;;12786510;23;20017;-93
2021/01/16 17:05:00;;;;;;;26.33;15.52;;;-0.30;99.90;;;;;;12857169;23;20021;-94
2021/01/16 17:10:02;;;;;;;26.65;15.75;;;-0.40;99.90;;;;;;12860926;23;20025;-95
2021/01/16 17:15:10;;;;;;;29.48;16.33;;;-0.40;99.90;;;;;;12837092;23;20078;-94
2021/01/16 17:20:13;;;;;;;31.58;16.67;;;-0.40;99.90;;;;;;12861036;23;20024;-95
2021/01/16 17:25:15;;;;;;;32.80;17.52;;;-0.40;99.90;;;;;;12835611;23;20331;-95
2021/01/16 17:30:19;;;;;;;28.67;16.77;;;-0.50;99.90;;;;;;12834825;23;20450;-95
2021/01/16 17:35:21;;;;;;;30.98;17.45;;;-0.50;99.90;;;;;;12836263;23;20457;-94
2021/01/16 17:40:31;;;;;;;27.40;15.63;;;-0.50;99.90;;;;;;12861458;23;20039;-95
2021/01/16 17:45:32;;;;;;;30.05;18.80;;;-0.50;99.90;;;;;;12837872;23;20016;-95
2021/01/16 17:50:34;;;;;;;;;;;-0.60;99.90;;;;;;12864641;23;20036;-95
2021/01/16 17:55:38;;;;;;;31.70;15.90;;;-0.60;99.90;;;;;;12866928;23;19916;-96
2021/01/16 18:00:40;;;;;;;30.75;18.10;;;-0.60;99.90;;;;;;12842126;23;20021;-96
2021/01/16 18:05:44;;;;;;;31.40;18.48;;;-0.70;99.90;;;;;;12866471;23;20028;-95
2021/01/16 18:10:46;;;;;;;29.75;17.05;;;-0.60;99.90;;;;;;12865514;23;20025;-95
2021/01/16 18:15:50;;;;;;;29.85;17.65;;;-0.70;99.90;;;;;;12865880;23;20020;-95
2021/01/16 18:20:52;;;;;;;30.20;17.65;;;-0.60;99.90;;;;;;12840451;23;20016;-96
2021/01/16 18:25:56;;;;;;;34.10;18.63;;;-0.60;99.90;;;;;;12815889;23;20454;-96
2021/01/16 18:30:58;;;;;;;;;;;-0.60;99.90;;;;;;12840058;23;20036;-96
2021/01/16 18:36:06;;;;;;;31.00;17.17;;;-0.70;99.90;;;;;;12863240;23;19994;-96
2021/01/16 18:41:08;;;;;;;32.42;18.10;;;-0.70;99.90;;;;;;12865289;23;20043;-96
2021/01/16 18:46:10;;;;;;;38.05;20.20;;;-0.70;99.90;;;;;;12865079;23;20025;-96
2021/01/16 18:51:12;;;;;;;;;;;-0.70;99.90;;;;;;12840582;23;20043;-96
2021/01/16 18:56:17;;;;;;;30.35;18.02;;;-0.70;99.90;;;;;;12865602;23;19916;-95
2021/01/16 19:01:19;;;;;;;32.63;19.73;;;-0.80;99.90;;;;;;12864514;23;20342;-95
2021/01/16 19:06:29;;;;;;;29.70;16.65;;;-0.80;99.90;;;;;;12866077;23;20476;-96
2021/01/16 19:11:32;;;;;;;29.58;18.48;;;-0.80;99.90;;;;;;12836310;23;20025;-96
2021/01/16 19:16:37;;;;;;;33.17;19.80;;;-0.80;99.90;;;;;;12840603;23;20020;-96
2021/01/16 19:21:43;;;;;;;35.03;20.23;;;-0.70;99.90;;;;;;12865626;23;20020;-96
2021/01/16 19:26:45;;;;;;;;;;;-0.80;99.90;;;;;;12840029;23;20031;-96
2021/01/16 19:31:48;;;;;;;36.45;20.52;;;-0.70;99.90;;;;;;12866810;23;20354;-96
2021/01/16 19:36:50;;;;;;;40.15;23.85;;;-0.70;99.90;;;;;;12864776;23;20355;-96
2021/01/16 19:41:53;;;;;;;34.35;20.67;;;-0.70;99.90;;;;;;12864034;23;20039;-96
2021/01/16 19:46:55;;;;;;;37.45;21.85;;;-0.70;99.90;;;;;;12865752;23;20052;-96
2021/01/16 19:51:57;;;;;;;44.85;22.08;;;-0.70;99.90;;;;;;12864219;23;20357;-96
2021/01/16 19:56:59;;;;;;;38.53;22.73;;;-0.70;99.90;;;;;;12840051;23;20067;-96
2021/01/16 20:02:00;;;;;;;43.60;25.55;;;-0.60;99.90;;;;;;12864669;23;20023;-96
2021/01/16 20:07:03;;;;;;;39.58;22.42;;;-0.70;99.90;;;;;;12791627;23;20103;-94
2021/01/16 20:12:05;;;;;;;39.97;20.80;;;-0.70;99.90;;;;;;12838063;23;20031;-96
2021/01/16 20:17:06;;;;;;;36.78;22.15;;;-0.60;99.90;;;;;;12836508;23;20391;-96
2021/01/16 20:22:08;;;;;;;31.92;19.50;;;-0.60;99.90;;;;;;12838624;23;20335;-96
2021/01/16 20:27:09;;;;;;;36.50;20.52;;;-0.60;99.90;;;;;;12838459;23;20044;-96
2021/01/16 20:32:11;;;;;;;34.42;20.15;;;-0.60;99.90;;;;;;12864828;23;20040;-96
2021/01/16 20:37:13;;;;;;;34.05;19.67;;;-0.60;99.90;;;;;;12813881;23;20044;-96
2021/01/16 20:42:15;;;;;;;;;;;-0.70;99.90;;;;;;12863999;23;20350;-96
2021/01/16 20:47:19;;;;;;;44.40;24.30;;;-0.60;99.90;;;;;;12863821;23;19916;-96
2021/01/16 20:52:21;;;;;;;32.63;19.70;;;-0.60;99.90;;;;;;12838259;23;20021;-96
2021/01/16 20:57:23;;;;;;;;;;;-0.70;99.90;;;;;;12815389;23;20431;-96
2021/01/16 21:02:24;;;;;;;38.13;22.23;;;-0.60;99.90;;;;;;12862959;23;20344;-96
2021/01/16 21:07:26;;;;;;;40.47;23.83;;;-0.60;99.90;;;;;;12839977;23;20048;-96
2021/01/16 21:12:28;;;;;;;;;;;-0.60;99.90;;;;;;12841106;23;20068;-96
2021/01/16 21:17:29;;;;;;;37.28;22.42;;;-0.60;99.90;;;;;;12864242;23;19916;-94
2021/01/16 21:22:31;;;;;;;;;;;-0.60;99.90;;;;;;12803249;23;20027;-95
2021/01/16 21:27:35;;;;;;;38.87;23.23;;;-0.60;99.90;;;;;;12866795;23;19919;-95
2021/01/16 21:32:46;;;;;;;44.00;24.27;;;-0.60;99.90;;;;;;12867919;23;20039;-94
2021/01/16 21:37:57;;;;;;;42.50;24.45;;;-0.60;99.90;;;;;;12842598;23;20043;-95
2021/01/16 21:43:02;;;;;;;44.03;26.53;;;-0.60;99.90;;;;;;12866813;23;20349;-94
2021/01/16 21:48:10;;;;;;;45.70;25.63;;;-0.60;99.90;;;;;;12867411;23;20024;-95
2021/01/16 21:53:11;;;;;;;42.03;22.90;;;-0.60;99.90;;;;;;12844442;23;20021;-94
2021/01/16 21:58:13;;;;;;;44.70;25.50;;;-0.60;99.90;;;;;;12843261;23;20016;-94
2021/01/16 22:03:14;;;;;;;;;;;-0.60;99.90;;;;;;12866979;23;20055;-95
2021/01/16 22:08:16;;;;;;;42.88;24.85;;;-0.50;99.90;;;;;;12866739;23;19986;-94
2021/01/16 22:13:17;;;;;;;45.83;26.55;;;-0.50;99.90;;;;;;12867217;23;20051;-95
2021/01/16 22:18:19;;;;;;;;;;;-0.50;99.90;;;;;;12842106;23;20024;-95
2021/01/16 22:23:20;;;;;;;47.50;26.33;;;-0.50;99.90;;;;;;12841528;23;19932;-95
2021/01/16 22:28:22;;;;;;;41.28;23.95;;;-0.50;99.90;;;;;;12791753;23;20021;-95
